Tetbury, United Kingdom
Current Conditions -  °F | °C
As of 3:23 PM on Saturday 22 Nov 2014 (Local Time) from EGVA Reporting Station
Overcast Overcast  
Wind Chill: 55°   Ceiling: 2700
Heat Index: 55°   Visibility: 6mi
Dew Point: 52°   Wind: 3mph
Humidity: 88%   Direction: 260°W
Pressure: 29.89"   Gusts: NA
Location:  51.64°N, 2.16°W
Report Text: EGVA 221523Z AUTO 26003KT 9999 SCT021 BKN027 BKN038 OVC070 13/11 A2989 RMK AO2 CIG 024V038 BKN027 V SCT $
Loading
Personal Weather Stations






























Interactive Weather Map New forecast layout! Learn more

10-Day Weather Forecast

Advertisements
Track Severe Weather on mobile